Time;durP1;ratioP1;P1;durP2;ratioP2;P2;SDS_P1;SDS_P2;PMS_P1;PMS_P2;Temp;Humidity;BMP_temperature;BMP_pressure;BME280_temperature;BME280_humidity;BME280_pressure;Samples;Min_cycle;Max_cycle;Signal;HPM_P1;HPM_P2
2022/03/20 18:49:46;;;;;;;0.05;0.00;;;7.90;54.40;;;;;;5159217;27;20381;-73
2022/03/20 18:52:13;;;;;;;0.00;0.00;;;7.90;53.70;;;;;;5139482;27;20075;-76
2022/03/20 18:54:39;;;;;;;0.00;0.00;;;7.90;54.70;;;;;;5166594;27;20208;-68
2022/03/20 18:57:06;;;;;;;0.00;0.00;;;7.80;54.30;;;;;;5131855;27;20031;-71
2022/03/20 18:59:37;;;;;;;0.00;0.00;;;7.70;57.30;;;;;;5114335;27;20274;-68
2022/03/20 19:02:03;;;;;;;0.00;0.00;;;7.60;54.30;;;;;;5132419;27;20340;-72
2022/03/20 19:04:31;;;;;;;0.00;0.00;;;7.60;54.10;;;;;;5133987;27;20042;-68
2022/03/20 19:06:57;;;;;;;0.00;0.00;;;7.50;56.60;;;;;;5130695;27;20325;-68
2022/03/20 19:09:24;;;;;;;0.00;0.00;;;7.40;57.90;;;;;;5114478;27;20027;-67
2022/03/20 19:11:51;;;;;;;0.00;0.00;;;7.40;54.30;;;;;;5135429;27;20015;-72
2022/03/20 19:14:20;;;;;;;0.00;0.00;;;7.50;52.60;;;;;;5135307;27;20062;-67
2022/03/20 19:16:50;;;;;;;0.00;0.00;;;7.50;53.80;;;;;;5129243;27;20026;-68
2022/03/20 19:19:17;;;;;;;0.00;0.00;;;7.40;57.10;;;;;;5145455;27;20034;-67
2022/03/20 19:21:44;;;;;;;0.10;0.10;;;7.30;54.00;;;;;;5159327;27;20026;-66
2022/03/20 19:24:09;;;;;;;0.20;0.00;;;7.40;53.00;;;;;;5123404;27;20023;-69
2022/03/20 19:26:36;;;;;;;0.00;0.00;;;7.30;54.40;;;;;;5139548;27;20087;-68
2022/03/20 19:29:03;;;;;;;0.00;0.00;;;7.20;53.40;;;;;;5125463;27;20788;-66
2022/03/20 19:31:31;;;;;;;0.00;0.00;;;7.30;52.80;;;;;;5124688;27;20022;-67
2022/03/20 19:42:58;;;;;;;;;;;;;;;;;;;;;
2022/03/20 19:45:33;;;;;;;0.00;0.00;;;7.10;57.80;;;;;;5145974;27;20042;-68
2022/03/20 19:48:02;;;;;;;0.00;0.00;;;7.10;57.40;;;;;;5142918;27;20065;-68
2022/03/20 19:50:27;;;;;;;0.00;0.00;;;7.00;57.40;;;;;;5025705;28;20268;-67
2022/03/20 19:52:53;;;;;;;0.00;0.00;;;7.00;55.60;;;;;;5095815;28;20188;-67
2022/03/20 19:55:20;;;;;;;0.00;0.00;;;7.00;58.10;;;;;;5014187;28;20093;-67
2022/03/20 19:57:47;;;;;;;0.00;0.00;;;6.90;55.10;;;;;;5086601;28;20030;-67
2022/03/20 20:00:13;;;;;;;0.00;0.00;;;6.90;57.00;;;;;;5024030;28;20034;-67
2022/03/20 20:02:39;;;;;;;0.10;0.03;;;6.80;57.80;;;;;;5086976;28;20037;-67
2022/03/20 20:05:05;;;;;;;0.00;0.00;;;6.80;55.20;;;;;;5082825;28;20048;-68
2022/03/20 20:07:31;;;;;;;0.00;0.00;;;6.80;57.00;;;;;;5018918;28;20346;-67
2022/03/20 20:10:02;;;;;;;0.00;0.00;;;6.70;57.70;;;;;;5022151;28;20021;-68
2022/03/20 20:12:28;;;;;;;0.00;0.00;;;6.80;53.70;;;;;;5033970;28;20030;-69
2022/03/20 20:14:54;;;;;;;0.10;0.10;;;6.70;55.70;;;;;;5038653;28;20026;-70
2022/03/20 20:17:22;;;;;;;0.00;0.00;;;6.80;57.40;;;;;;5107442;28;20029;-68
2022/03/20 20:19:53;;;;;;;0.00;0.00;;;6.70;55.00;;;;;;5038338;28;20216;-70
2022/03/20 20:22:20;;;;;;;0.00;0.00;;;6.70;55.40;;;;;;5038621;28;20141;-68
2022/03/20 20:24:48;;;;;;;0.00;0.00;;;6.60;59.30;;;;;;5038541;28;20119;-68
2022/03/20 20:27:14;;;;;;;0.00;0.00;;;6.60;57.90;;;;;;5038372;28;20054;-68
2022/03/20 20:29:40;;;;;;;0.00;0.00;;;6.50;58.00;;;;;;5107132;28;20025;-68
2022/03/20 20:32:07;;;;;;;0.00;0.00;;;6.50;58.90;;;;;;5106528;28;20301;-68
2022/03/20 20:34:34;;;;;;;0.00;0.00;;;6.50;54.40;;;;;;5107086;28;20027;-70
2022/03/20 20:36:59;;;;;;;0.00;0.00;;;6.60;56.80;;;;;;5037912;28;20036;-69
2022/03/20 20:39:25;;;;;;;0.00;0.00;;;6.50;57.10;;;;;;5038263;28;20033;-69
2022/03/20 20:41:51;;;;;;;0.00;0.00;;;6.50;58.90;;;;;;5037812;28;20043;-71
2022/03/20 20:44:19;;;;;;;0.25;0.25;;;6.50;57.90;;;;;;5038367;28;20029;-69
2022/03/20 20:46:46;;;;;;;0.00;0.00;;;6.40;59.80;;;;;;5106867;28;20045;-74
2022/03/20 20:49:16;;;;;;;0.00;0.00;;;6.50;58.20;;;;;;5119297;27;20039;-68
2022/03/20 20:51:42;;;;;;;0.00;0.00;;;6.40;58.20;;;;;;5142702;27;20031;-69
2022/03/20 20:54:08;;;;;;;0.00;0.00;;;6.50;56.00;;;;;;5142109;27;20037;-70
2022/03/20 20:56:34;;;;;;;0.00;0.00;;;6.50;57.90;;;;;;5142625;27;20293;-70
2022/03/20 20:59:00;;;;;;;0.00;0.00;;;6.60;58.60;;;;;;5141785;27;20046;-69
2022/03/20 21:01:26;;;;;;;0.00;0.00;;;6.50;58.20;;;;;;5157361;27;20027;-69
2022/03/20 21:03:51;;;;;;;0.00;0.00;;;6.40;58.90;;;;;;5123666;27;20038;-69
2022/03/20 21:06:17;;;;;;;0.00;0.00;;;6.40;61.60;;;;;;5124030;27;20373;-69
2022/03/20 21:11:29;;;;;;;0.00;0.00;;;6.30;57.40;;;;;;5142045;27;20022;-69
2022/03/20 21:13:54;;;;;;;0.00;0.00;;;6.20;58.70;;;;;;5157684;27;20023;-71
2022/03/20 21:16:22;;;;;;;0.00;0.00;;;6.20;60.00;;;;;;5124018;27;20023;-69
2022/03/20 21:18:48;;;;;;;0.00;0.00;;;6.20;60.10;;;;;;5124128;27;20254;-70
2022/03/20 21:21:15;;;;;;;0.00;0.00;;;6.10;61.90;;;;;;5123263;27;20373;-71
2022/03/20 21:23:41;;;;;;;0.00;0.00;;;6.00;60.30;;;;;;5123651;27;20019;-69
2022/03/20 21:26:07;;;;;;;0.17;0.17;;;6.10;58.50;;;;;;5141250;27;20026;-68
2022/03/20 21:28:32;;;;;;;0.00;0.00;;;6.10;58.50;;;;;;5123742;27;20294;-68
2022/03/20 21:30:58;;;;;;;0.00;0.00;;;6.00;61.40;;;;;;5122865;27;20054;-67
2022/03/20 21:33:25;;;;;;;0.10;0.10;;;6.00;59.50;;;;;;5141504;27;20112;-79
2022/03/20 21:35:52;;;;;;;0.00;0.00;;;6.00;59.90;;;;;;5141531;27;20039;-79
2022/03/20 21:38:20;;;;;;;0.00;0.00;;;5.90;60.30;;;;;;5157980;27;20027;-69
2022/03/20 21:40:47;;;;;;;0.00;0.00;;;6.00;58.50;;;;;;5141766;27;20316;-68
2022/03/20 21:43:13;;;;;;;0.00;0.00;;;6.00;57.50;;;;;;5122957;27;20027;-68
2022/03/20 21:45:41;;;;;;;0.00;0.00;;;6.00;57.50;;;;;;5123300;27;20035;-68
2022/03/20 21:48:08;;;;;;;0.00;0.00;;;6.00;60.00;;;;;;5140892;27;20050;-68
2022/03/20 21:50:36;;;;;;;0.00;0.00;;;5.90;59.80;;;;;;5123172;27;20331;-68
2022/03/20 21:53:03;;;;;;;0.00;0.00;;;5.90;60.80;;;;;;5122765;27;20317;-68
2022/03/20 21:55:30;;;;;;;0.00;0.00;;;5.90;60.20;;;;;;5141598;27;20064;-75
2022/03/20 21:57:57;;;;;;;0.00;0.00;;;5.90;59.40;;;;;;5157031;27;20268;-74
2022/03/20 22:00:23;;;;;;;0.15;0.13;;;5.90;57.30;;;;;;5141281;27;20075;-74
2022/03/20 22:02:54;;;;;;;0.00;0.00;;;5.90;58.30;;;;;;5122670;27;20022;-70
2022/03/20 22:05:22;;;;;;;0.75;0.75;;;5.90;60.10;;;;;;5157287;27;20015;-69
2022/03/20 22:07:50;;;;;;;0.10;0.10;;;5.80;58.20;;;;;;5122630;28;20118;-72
2022/03/20 22:10:16;;;;;;;0.00;0.00;;;5.80;61.10;;;;;;5140721;27;20064;-69
2022/03/20 22:12:42;;;;;;;0.00;0.00;;;5.80;58.00;;;;;;5140884;27;20301;-74
2022/03/20 22:15:08;;;;;;;0.00;0.00;;;5.80;58.40;;;;;;5122418;27;20019;-70
2022/03/20 22:17:34;;;;;;;0.00;0.00;;;5.80;58.90;;;;;;5140708;27;20208;-70
2022/03/20 22:20:04;;;;;;;0.00;0.00;;;5.70;62.80;;;;;;5122423;27;20015;-68
2022/03/20 22:22:31;;;;;;;0.00;0.00;;;5.60;62.20;;;;;;5122982;27;20038;-68
2022/03/20 22:25:00;;;;;;;0.00;0.00;;;5.70;59.00;;;;;;5140667;27;20078;-69
2022/03/20 22:27:28;;;;;;;0.00;0.00;;;5.70;60.10;;;;;;5140781;27;20068;-69
2022/03/20 22:29:54;;;;;;;0.22;0.00;;;5.70;56.90;;;;;;5140522;27;20015;-71
2022/03/20 22:32:21;;;;;;;0.00;0.00;;;5.70;57.30;;;;;;5140885;27;20027;-69
2022/03/20 22:37:39;;;;;;;0.00;0.00;;;5.70;58.40;;;;;;5140616;27;20019;-69
2022/03/20 22:37:40;;;;;;;0.00;0.00;;;5.60;60.00;;;;;;5140649;28;20034;-70
2022/03/20 22:40:16;;;;;;;0.00;0.00;;;5.50;59.40;;;;;;5140458;28;20032;-70
2022/03/20 22:42:49;;;;;;;0.00;0.00;;;5.40;62.00;;;;;;5122603;28;20019;-70
2022/03/20 22:45:16;;;;;;;0.00;0.00;;;5.30;60.10;;;;;;5122001;28;20015;-74
2022/03/20 22:47:42;;;;;;;0.00;0.00;;;5.30;62.50;;;;;;5140335;28;20051;-71
2022/03/20 22:50:13;;;;;;;0.00;0.00;;;5.30;62.90;;;;;;5121865;28;20020;-70
2022/03/20 22:52:40;;;;;;;0.43;0.10;;;5.20;62.90;;;;;;5140566;28;20304;-70
2022/03/20 22:55:11;;;;;;;0.00;0.00;;;5.20;61.70;;;;;;5140319;28;20016;-70
2022/03/20 22:57:37;;;;;;;0.00;0.00;;;5.20;60.10;;;;;;5122263;28;20050;-73
2022/03/20 23:00:35;;;;;;;0.00;0.00;;;5.20;59.60;;;;;;5140052;28;20063;-69
2022/03/20 23:03:01;;;;;;;0.03;0.03;;;5.40;60.00;;;;;;5125606;27;20310;-68
2022/03/20 23:05:28;;;;;;;0.00;0.00;;;5.40;57.90;;;;;;5122097;28;20321;-70
2022/03/20 23:07:56;;;;;;;0.00;0.00;;;5.40;58.80;;;;;;5139873;28;20019;-73
2022/03/20 23:10:26;;;;;;;0.00;0.00;;;5.40;57.10;;;;;;5140317;28;20078;-70
2022/03/20 23:12:56;;;;;;;0.00;0.00;;;5.40;57.60;;;;;;5122241;28;20026;-69
2022/03/20 23:15:23;;;;;;;0.00;0.00;;;5.50;57.20;;;;;;5140721;28;20030;-69
2022/03/20 23:17:49;;;;;;;0.00;0.00;;;5.40;58.60;;;;;;5122125;28;20023;-70
2022/03/20 23:20:15;;;;;;;0.00;0.00;;;5.30;56.80;;;;;;5139690;28;20064;-68
2022/03/20 23:22:44;;;;;;;0.00;0.00;;;5.40;56.50;;;;;;5122159;28;20015;-73
2022/03/20 23:25:25;;;;;;;0.00;0.00;;;5.40;58.80;;;;;;5123493;27;20020;-68
2022/03/20 23:27:52;;;;;;;0.00;0.00;;;5.40;57.10;;;;;;5144325;27;20205;-68
2022/03/20 23:30:19;;;;;;;0.00;0.00;;;5.30;59.00;;;;;;5125262;27;20038;-69
2022/03/20 23:32:49;;;;;;;0.00;0.00;;;5.20;57.70;;;;;;5144159;27;20072;-69
2022/03/20 23:35:17;;;;;;;0.00;0.00;;;5.20;57.20;;;;;;5143584;27;20129;-69
2022/03/20 23:37:43;;;;;;;0.00;0.00;;;5.10;61.30;;;;;;5125696;27;20306;-69
2022/03/20 23:40:09;;;;;;;1.08;1.08;;;5.10;58.80;;;;;;5125049;27;20253;-70
2022/03/20 23:45:20;;;;;;;0.00;0.00;;;5.10;59.80;;;;;;5143845;27;20116;-69
2022/03/20 23:47:46;;;;;;;0.00;0.00;;;5.00;59.10;;;;;;5104108;28;20046;-70
2022/03/20 23:50:13;;;;;;;0.00;0.00;;;5.00;59.00;;;;;;5018916;28;20067;-69
2022/03/20 23:52:39;;;;;;;0.25;0.10;;;4.90;60.30;;;;;;5087451;28;20022;-73
2022/03/20 23:55:06;;;;;;;0.00;0.00;;;4.90;58.80;;;;;;5018478;28;20028;-71
2022/03/20 23:57:32;;;;;;;0.00;0.00;;;4.90;61.30;;;;;;5019093;28;20288;-70
2022/03/20 23:59:58;;;;;;;0.00;0.00;;;4.90;56.70;;;;;;5018759;28;20064;-68
